Time;durP1;ratioP1;P1;durP2;ratioP2;P2;SDS_P1;SDS_P2;PMS_P1;PMS_P2;Temp;Humidity;BMP_temperature;BMP_pressure;BME280_temperature;BME280_humidity;BME280_pressure;Samples;Min_cycle;Max_cycle;Signal;HPM_P1;HPM_P2
2023/10/22 00:00:33;;;;;;;5.83;0.90;;;13.80;71.70;;;;;;5007821;28;20059;-91
2023/10/22 00:03:01;;;;;;;3.20;0.60;;;13.80;71.80;;;;;;4974885;28;20295;-91
2023/10/22 00:05:31;;;;;;;4.63;0.50;;;13.80;71.60;;;;;;4988352;28;20054;-92
2023/10/22 00:08:00;;;;;;;3.92;0.50;;;13.80;71.10;;;;;;4954754;28;20822;-91
2023/10/22 00:10:35;;;;;;;5.03;0.47;;;13.90;70.80;;;;;;4955328;28;20174;-92
2023/10/22 00:13:03;;;;;;;4.97;0.63;;;13.90;70.90;;;;;;4965633;28;20050;-90
2023/10/22 00:15:31;;;;;;;2.90;0.70;;;13.90;70.90;;;;;;5007416;28;20263;-91
2023/10/22 00:17:58;;;;;;;3.17;0.50;;;13.90;71.10;;;;;;4964884;28;20121;-91
2023/10/22 00:20:30;;;;;;;5.57;0.50;;;13.90;71.20;;;;;;5007092;28;20054;-92
2023/10/22 00:22:57;;;;;;;4.43;0.70;;;13.90;71.00;;;;;;4974634;28;20859;-92
2023/10/22 00:25:25;;;;;;;3.60;0.77;;;13.90;71.10;;;;;;5007280;28;20046;-92
2023/10/22 00:27:53;;;;;;;4.82;0.60;;;13.90;71.20;;;;;;4974902;28;20834;-91
2023/10/22 00:30:20;;;;;;;4.22;0.40;;;13.90;71.40;;;;;;4974876;28;20051;-91
2023/10/22 00:32:47;;;;;;;6.07;0.70;;;13.90;71.60;;;;;;4975089;28;20511;-89
2023/10/22 00:35:15;;;;;;;5.22;0.77;;;13.90;71.40;;;;;;4973215;28;20580;-91
2023/10/22 00:37:43;;;;;;;2.27;0.40;;;13.90;71.60;;;;;;5007743;28;20051;-91
2023/10/22 00:40:15;;;;;;;3.70;0.40;;;13.90;71.90;;;;;;4990043;28;20275;-91
2023/10/22 00:42:43;;;;;;;5.78;0.60;;;13.90;72.20;;;;;;4972410;28;20051;-92
2023/10/22 00:45:41;;;;;;;3.38;0.40;;;13.90;72.50;;;;;;5007040;28;20051;-92
2023/10/22 00:48:11;;;;;;;2.80;0.70;;;13.90;72.60;;;;;;4975491;28;20133;-92
2023/10/22 00:50:40;;;;;;;4.10;0.50;;;13.90;72.80;;;;;;5007095;28;20051;-92
2023/10/22 00:53:08;;;;;;;4.25;0.43;;;13.90;73.00;;;;;;4974094;28;20294;-92
2023/10/22 00:55:39;;;;;;;5.18;0.35;;;13.90;73.30;;;;;;4991901;28;20055;-92
2023/10/22 00:58:08;;;;;;;3.05;0.40;;;13.90;73.60;;;;;;4974984;28;20062;-92
2023/10/22 01:00:38;;;;;;;2.58;0.40;;;13.90;73.80;;;;;;5006840;28;20058;-91
2023/10/22 01:03:06;;;;;;;2.07;0.30;;;13.80;74.10;;;;;;5023762;28;20477;-91
2023/10/22 01:05:39;;;;;;;3.38;0.40;;;13.70;74.10;;;;;;4974449;28;20255;-90
2023/10/22 01:08:10;;;;;;;4.63;0.47;;;13.70;74.50;;;;;;4973848;28;20051;-92
2023/10/22 01:10:39;;;;;;;3.30;0.47;;;13.70;74.50;;;;;;4974499;28;20055;-91
2023/10/22 01:13:07;;;;;;;3.50;0.60;;;13.70;74.40;;;;;;4974175;28;20784;-92
2023/10/22 01:15:35;;;;;;;3.13;0.40;;;13.60;74.60;;;;;;4987845;28;20069;-93
2023/10/22 01:18:07;;;;;;;4.80;0.40;;;13.60;74.80;;;;;;4993340;28;20722;-92
2023/10/22 01:20:34;;;;;;;5.38;0.40;;;13.60;74.90;;;;;;4974558;28;20084;-90
2023/10/22 01:23:01;;;;;;;2.90;0.50;;;13.60;75.50;;;;;;5006246;28;20095;-91
2023/10/22 01:25:32;;;;;;;4.63;0.40;;;13.60;75.80;;;;;;4973582;28;20053;-91
2023/10/22 01:28:01;;;;;;;4.23;0.47;;;13.50;75.80;;;;;;4973960;28;20418;-91
2023/10/22 01:30:28;;;;;;;5.72;0.80;;;13.50;76.10;;;;;;4973982;28;20253;-90
2023/10/22 01:32:57;;;;;;;4.35;0.57;;;13.50;76.30;;;;;;4974307;28;20055;-91
2023/10/22 01:35:25;;;;;;;4.35;0.40;;;13.50;76.20;;;;;;4989450;28;20082;-91
2023/10/22 01:37:52;;;;;;;6.20;0.85;;;13.50;76.50;;;;;;5006711;28;20055;-91
2023/10/22 01:40:19;;;;;;;4.87;0.60;;;13.50;76.70;;;;;;4973818;28;20051;-91
2023/10/22 01:42:48;;;;;;;4.30;0.52;;;13.50;76.70;;;;;;4989922;28;20251;-90
2023/10/22 01:45:15;;;;;;;3.90;0.50;;;13.50;76.90;;;;;;5005642;28;20061;-91
2023/10/22 01:47:43;;;;;;;4.32;0.60;;;13.50;77.10;;;;;;4973966;28;20058;-91
2023/10/22 01:50:13;;;;;;;4.38;0.45;;;13.40;77.30;;;;;;4973269;28;20130;-92
2023/10/22 01:52:40;;;;;;;3.70;0.60;;;13.40;77.50;;;;;;4973512;28;20161;-92
2023/10/22 01:55:09;;;;;;;4.00;0.40;;;13.40;77.90;;;;;;4989546;28;20267;-90
2023/10/22 01:57:37;;;;;;;4.28;0.40;;;13.30;78.10;;;;;;4973164;28;20708;-89
2023/10/22 02:00:10;;;;;;;4.32;0.60;;;13.30;78.30;;;;;;5005894;28;20050;-91
2023/10/22 02:02:43;;;;;;;3.20;0.40;;;13.30;78.70;;;;;;4989943;28;20699;-90
2023/10/22 02:05:10;;;;;;;4.67;0.43;;;13.30;79.30;;;;;;4976458;28;20047;-89
2023/10/22 02:07:39;;;;;;;5.10;0.70;;;13.20;79.10;;;;;;4976328;28;20803;-91
2023/10/22 02:10:08;;;;;;;4.55;0.60;;;13.10;79.40;;;;;;4976071;28;20055;-90
2023/10/22 02:12:36;;;;;;;3.70;0.50;;;13.10;79.60;;;;;;4976333;28;20061;-90
2023/10/22 02:15:07;;;;;;;3.25;0.50;;;13.10;80.00;;;;;;4992929;28;20059;-90
2023/10/22 02:17:35;;;;;;;4.90;0.60;;;13.10;80.20;;;;;;4976078;28;20070;-90
2023/10/22 02:20:02;;;;;;;4.38;0.63;;;13.10;80.60;;;;;;5007551;28;20290;-89
2023/10/22 02:22:30;;;;;;;4.10;0.55;;;13.10;80.60;;;;;;4976001;28;20114;-89
2023/10/22 02:24:57;;;;;;;3.17;0.70;;;13.00;80.60;;;;;;5008314;28;20500;-90
2023/10/22 02:27:27;;;;;;;3.97;0.70;;;13.00;81.20;;;;;;4975494;28;20137;-90
2023/10/22 02:29:55;;;;;;;4.03;0.57;;;12.90;81.30;;;;;;5009138;28;20094;-91
2023/10/22 02:32:22;;;;;;;5.70;1.05;;;13.00;82.00;;;;;;5009740;28;20712;-92
2023/10/22 02:35:23;;;;;;;;;;;;;;;;;;;;;
2023/10/22 02:42:48;;;;;;;;;;;;;;;;;;;;;
2023/10/22 02:53:49;;;;;;;4.57;0.55;;;12.70;83.20;;;;;;4900416;28;20098;-92
2023/10/22 02:59:33;;;;;;;4.95;0.68;;;12.60;83.50;;;;;;4925823;28;20504;-92
2023/10/22 03:02:02;;;;;;;4.07;0.60;;;12.60;84.10;;;;;;4967491;28;20051;-91
2023/10/22 03:04:29;;;;;;;3.22;0.70;;;12.60;84.20;;;;;;5009355;28;20278;-91
2023/10/22 03:06:56;;;;;;;5.65;1.00;;;12.60;84.30;;;;;;5008787;28;20166;-91
2023/10/22 03:09:25;;;;;;;4.70;0.47;;;12.50;84.50;;;;;;4976414;28;20062;-93
2023/10/22 03:11:53;;;;;;;4.40;0.68;;;12.50;84.50;;;;;;4974812;28;20055;-92
2023/10/22 03:14:21;;;;;;;5.27;0.60;;;12.50;84.70;;;;;;4975444;28;20070;-92
2023/10/22 03:17:10;;;;;;;3.60;0.60;;;12.50;84.60;;;;;;5009395;28;20274;-92
2023/10/22 03:19:42;;;;;;;3.95;0.60;;;12.60;85.00;;;;;;4975869;28;20787;-92
2023/10/22 03:22:19;;;;;;;5.75;0.55;;;12.60;85.10;;;;;;4975611;28;20734;-92
2023/10/22 03:25:29;;;;;;;3.17;0.70;;;12.60;85.20;;;;;;4976356;28;20149;-92
2023/10/22 03:28:08;;;;;;;4.33;0.97;;;12.70;85.30;;;;;;4993142;28;20054;-92
2023/10/22 03:30:41;;;;;;;3.80;0.63;;;12.60;85.10;;;;;;4972834;28;20266;-92
2023/10/22 03:33:25;;;;;;;3.67;0.63;;;12.70;85.30;;;;;;4972422;28;20075;-92
2023/10/22 03:36:09;;;;;;;4.20;0.63;;;12.70;85.60;;;;;;4988554;28;20715;-92
2023/10/22 03:38:43;;;;;;;3.67;0.50;;;12.70;85.70;;;;;;4977291;28;20051;-92
2023/10/22 03:41:15;;;;;;;4.47;0.60;;;12.60;85.70;;;;;;4975809;28;20142;-92
2023/10/22 03:43:50;;;;;;;4.18;0.60;;;12.70;85.90;;;;;;5008435;28;20330;-91
2023/10/22 03:46:21;;;;;;;3.42;0.63;;;12.60;85.80;;;;;;4974802;28;20047;-92
2023/10/22 05:02:20;;;;;;;3.43;0.77;;;12.50;88.10;;;;;;5000337;28;20046;-90
2023/10/22 05:04:48;;;;;;;4.30;0.73;;;12.60;88.10;;;;;;5019180;28;20290;-88
2023/10/22 05:07:17;;;;;;;3.72;1.00;;;12.60;88.20;;;;;;4998471;28;20907;-89
2023/10/22 05:09:45;;;;;;;2.78;0.70;;;12.70;88.30;;;;;;4997213;28;20078;-90
2023/10/22 05:12:12;;;;;;;3.63;0.95;;;12.70;88.20;;;;;;4984375;28;20054;-86
2023/10/22 05:14:39;;;;;;;3.10;0.70;;;12.70;88.30;;;;;;4980579;28;20133;-86
2023/10/22 05:17:06;;;;;;;3.15;0.77;;;12.70;88.30;;;;;;5000278;28;20312;-87
2023/10/22 05:19:41;;;;;;;3.38;1.10;;;12.70;88.30;;;;;;4979916;28;20047;-92
2023/10/22 05:22:08;;;;;;;3.00;0.93;;;12.70;88.60;;;;;;4980629;28;20060;-85
2023/10/22 05:24:35;;;;;;;3.15;0.88;;;12.70;88.70;;;;;;4984376;28;20619;-84
2023/10/22 05:27:03;;;;;;;3.70;1.03;;;12.70;88.70;;;;;;4994459;28;20063;-86
2023/10/22 05:29:35;;;;;;;2.70;0.90;;;12.80;88.90;;;;;;4976211;28;20457;-86
2023/10/22 05:32:10;;;;;;;3.35;0.80;;;12.80;88.90;;;;;;4969469;28;20058;-87
2023/10/22 05:34:39;;;;;;;3.22;0.93;;;12.80;89.00;;;;;;4971342;28;20043;-89
2023/10/22 05:37:07;;;;;;;2.70;0.73;;;12.80;89.10;;;;;;4977038;28;20050;-85
2023/10/22 05:39:39;;;;;;;2.90;0.70;;;12.80;89.30;;;;;;4982805;28;20054;-89
2023/10/22 05:42:10;;;;;;;3.38;0.40;;;12.80;89.40;;;;;;4977463;28;20316;-85
2023/10/22 05:44:44;;;;;;;2.15;0.32;;;12.80;89.30;;;;;;5009932;28;20046;-90
2023/10/22 05:47:15;;;;;;;2.28;0.30;;;12.80;89.70;;;;;;4987211;28;20055;-90
2023/10/22 05:49:48;;;;;;;1.80;0.30;;;12.90;89.70;;;;;;4974811;28;20618;-89
2023/10/22 05:52:16;;;;;;;2.90;0.30;;;12.90;89.50;;;;;;4977141;28;20688;-89
2023/10/22 05:54:45;;;;;;;3.25;0.60;;;12.90;88.70;;;;;;4982729;28;20305;-87
2023/10/22 05:57:12;;;;;;;3.20;0.60;;;12.90;88.20;;;;;;4986821;28;20057;-92
2023/10/22 05:59:57;;;;;;;3.42;0.40;;;12.90;88.10;;;;;;4979063;28;20616;-91
2023/10/22 06:02:28;;;;;;;5.15;0.60;;;12.80;88.40;;;;;;4997845;28;20062;-91
2023/10/22 06:04:56;;;;;;;3.10;0.40;;;12.80;88.50;;;;;;4980177;28;20623;-87
2023/10/22 06:07:23;;;;;;;2.83;0.30;;;12.80;88.80;;;;;;4971336;28;20437;-88
2023/10/22 06:09:50;;;;;;;1.92;0.35;;;12.70;89.00;;;;;;5003316;28;20174;-90
2023/10/22 06:12:17;;;;;;;1.83;0.20;;;12.70;89.10;;;;;;4981113;28;20056;-85
2023/10/22 06:14:44;;;;;;;2.50;0.38;;;12.70;89.00;;;;;;4979131;28;20093;-82
2023/10/22 06:17:11;;;;;;;2.93;0.50;;;12.60;89.00;;;;;;4979972;28;20543;-87
2023/10/22 06:19:37;;;;;;;3.42;0.65;;;12.50;89.10;;;;;;5003234;28;20264;-89
2023/10/22 06:22:06;;;;;;;4.22;0.70;;;12.50;89.10;;;;;;4977526;28;20085;-90
2023/10/22 06:24:33;;;;;;;4.18;0.80;;;12.50;88.90;;;;;;4981455;28;20622;-90
2023/10/22 06:27:01;;;;;;;3.42;0.60;;;12.50;88.60;;;;;;4975217;28;20172;-90
2023/10/22 06:29:28;;;;;;;3.17;0.50;;;12.50;88.20;;;;;;4980638;28;20061;-86
2023/10/22 06:31:55;;;;;;;4.22;1.02;;;12.40;88.10;;;;;;4979958;28;20265;-85
2023/10/22 06:34:22;;;;;;;4.25;1.05;;;12.40;88.00;;;;;;4996331;28;20054;-89
2023/10/22 06:36:49;;;;;;;5.25;1.00;;;12.30;87.80;;;;;;4957701;28;20055;-88
2023/10/22 06:39:17;;;;;;;4.15;0.88;;;12.20;88.00;;;;;;4999933;28;20086;-87
2023/10/22 06:41:44;;;;;;;4.00;1.03;;;12.20;87.80;;;;;;4983513;28;20066;-86
2023/10/22 06:44:11;;;;;;;2.60;0.82;;;12.10;87.90;;;;;;4967204;28;20805;-84
2023/10/22 06:46:38;;;;;;;4.03;1.00;;;12.10;88.30;;;;;;5019612;28;20429;-82
2023/10/22 06:49:05;;;;;;;5.57;1.48;;;12.00;88.40;;;;;;4989481;28;20134;-85
2023/10/22 06:51:32;;;;;;;5.45;2.00;;;12.00;88.70;;;;;;5022396;28;20131;-82
2023/10/22 06:53:59;;;;;;;7.13;2.00;;;12.00;88.80;;;;;;4972909;28;20417;-82
2023/10/22 06:56:27;;;;;;;6.22;2.40;;;12.00;88.80;;;;;;4996764;28;20368;-83
2023/10/22 06:58:54;;;;;;;6.20;2.13;;;12.00;88.90;;;;;;4996518;28;20047;-82
2023/10/22 07:01:21;;;;;;;6.70;2.40;;;12.00;89.00;;;;;;4996924;28;20049;-83
2023/10/22 07:03:48;;;;;;;6.47;2.30;;;12.00;88.90;;;;;;5007408;28;20055;-86
2023/10/22 07:06:15;;;;;;;5.00;2.17;;;12.00;88.80;;;;;;4982715;28;20149;-86
2023/10/22 07:08:43;;;;;;;8.45;2.60;;;12.00;88.90;;;;;;4972821;28;20247;-83
2023/10/22 07:11:10;;;;;;;6.53;2.45;;;12.00;89.00;;;;;;4974062;28;20054;-84
2023/10/22 07:13:38;;;;;;;7.68;2.45;;;12.00;89.00;;;;;;4987650;28;20126;-90
2023/10/22 07:16:06;;;;;;;5.55;2.00;;;12.00;89.00;;;;;;4980096;28;20116;-91
2023/10/22 07:18:36;;;;;;;6.33;2.23;;;12.00;89.10;;;;;;4974165;28;20880;-91
2023/10/22 07:21:03;;;;;;;5.85;2.17;;;12.00;89.00;;;;;;4975708;28;20322;-90
2023/10/22 07:23:33;;;;;;;5.97;1.80;;;12.00;89.10;;;;;;4981526;28;20458;-85
2023/10/22 07:26:01;;;;;;;5.13;1.67;;;12.00;89.00;;;;;;5015641;28;20059;-87
2023/10/22 07:28:29;;;;;;;7.03;1.55;;;12.00;88.90;;;;;;4982996;28;20546;-88
2023/10/22 07:30:57;;;;;;;6.63;1.50;;;12.00;88.60;;;;;;4974912;28;20062;-85
2023/10/22 07:33:27;;;;;;;5.50;1.50;;;12.00;88.50;;;;;;4993533;28;20784;-86
2023/10/22 07:35:56;;;;;;;5.85;1.33;;;12.00;88.40;;;;;;4978905;28;20054;-91
2023/10/22 07:38:24;;;;;;;5.05;1.42;;;12.00;88.30;;;;;;5007674;28;21172;-85
2023/10/22 07:40:55;;;;;;;5.32;1.80;;;12.00;88.30;;;;;;4980523;28;20497;-86
2023/10/22 07:43:24;;;;;;;5.50;1.60;;;12.00;88.30;;;;;;4981007;28;20513;-87
2023/10/22 07:45:51;;;;;;;4.80;1.77;;;12.00;88.20;;;;;;4980068;28;20787;-88
2023/10/22 07:48:19;;;;;;;4.47;1.80;;;12.00;88.20;;;;;;4973789;28;20130;-85
2023/10/22 07:50:46;;;;;;;6.05;1.90;;;12.00;88.30;;;;;;4988392;28;20654;-89
2023/10/22 07:53:13;;;;;;;6.20;1.75;;;12.00;88.20;;;;;;5005491;28;20098;-87
2023/10/22 07:55:42;;;;;;;4.97;2.10;;;12.00;88.20;;;;;;4974887;28;20051;-88
2023/10/22 07:58:09;;;;;;;4.75;1.75;;;12.00;88.20;;;;;;5006072;28;20274;-87
2023/10/22 08:00:37;;;;;;;6.80;2.05;;;12.00;88.20;;;;;;4975067;28;20050;-86
2023/10/22 08:03:04;;;;;;;6.13;1.73;;;12.00;88.30;;;;;;5012891;28;20517;-86
2023/10/22 08:05:34;;;;;;;7.50;1.90;;;12.00;88.20;;;;;;4989828;28;20137;-88
2023/10/22 08:08:01;;;;;;;8.03;2.07;;;12.00;88.30;;;;;;4974201;28;20062;-89
2023/10/22 08:10:28;;;;;;;4.68;1.77;;;12.10;88.30;;;;;;4987077;28;20255;-85
2023/10/22 08:12:55;;;;;;;5.00;1.77;;;12.10;88.20;;;;;;4984473;28;20550;-86
2023/10/22 08:15:24;;;;;;;5.97;1.67;;;12.10;88.20;;;;;;5023550;28;20062;-82
2023/10/22 08:17:52;;;;;;;4.35;1.42;;;12.10;88.20;;;;;;5030501;28;20073;-86
2023/10/22 08:20:19;;;;;;;6.17;1.90;;;12.10;88.20;;;;;;4985685;28;20157;-81
2023/10/22 08:22:47;;;;;;;7.72;1.92;;;12.10;88.20;;;;;;4989363;28;21449;-84
2023/10/22 08:25:14;;;;;;;5.20;1.85;;;12.10;88.20;;;;;;4974415;28;20142;-84
2023/10/22 08:27:41;;;;;;;6.10;2.25;;;12.20;88.30;;;;;;4971331;28;20804;-86
2023/10/22 08:30:13;;;;;;;8.50;2.42;;;12.20;88.20;;;;;;4993006;28;20062;-85
2023/10/22 08:32:44;;;;;;;4.07;1.80;;;12.20;88.10;;;;;;4987999;28;20513;-85
2023/10/22 08:35:11;;;;;;;8.23;2.17;;;12.20;87.90;;;;;;4973791;28;20404;-86
2023/10/22 08:37:38;;;;;;;7.35;2.15;;;12.20;88.00;;;;;;5007289;28;20141;-88
2023/10/22 08:40:12;;;;;;;6.32;2.10;;;12.30;87.90;;;;;;4998531;28;20114;-92
2023/10/22 08:42:39;;;;;;;5.68;1.90;;;12.30;87.80;;;;;;4992144;28;20051;-84
2023/10/22 08:45:08;;;;;;;6.10;2.23;;;12.30;87.80;;;;;;4988061;28;20050;-88
2023/10/22 08:47:36;;;;;;;6.63;1.83;;;12.30;87.90;;;;;;4977066;28;20255;-91
2023/10/22 08:50:03;;;;;;;6.70;1.88;;;12.40;87.90;;;;;;4975043;28;20043;-89
2023/10/22 08:52:30;;;;;;;5.18;1.73;;;12.50;87.90;;;;;;5000336;28;20057;-87
2023/10/22 08:54:57;;;;;;;6.28;1.70;;;12.50;87.90;;;;;;4990248;28;20061;-86
2023/10/22 08:57:27;;;;;;;6.37;1.90;;;12.50;87.70;;;;;;4974699;28;20055;-90
2023/10/22 08:59:54;;;;;;;5.85;2.30;;;12.50;87.80;;;;;;5009159;28;20350;-89
2023/10/22 09:02:26;;;;;;;6.75;2.10;;;12.50;87.70;;;;;;4974761;28;20054;-90
2023/10/22 09:04:54;;;;;;;4.95;1.80;;;12.50;87.30;;;;;;5003705;28;20061;-88
2023/10/22 09:07:49;;;;;;;7.30;2.03;;;12.70;86.80;;;;;;5002080;28;20065;-84
2023/10/22 09:10:42;;;;;;;7.50;1.97;;;12.70;86.70;;;;;;4972426;28;20055;-86
2023/10/22 09:13:15;;;;;;;5.78;1.77;;;12.70;86.20;;;;;;4995885;28;20281;-80
2023/10/22 09:15:44;;;;;;;4.25;1.40;;;12.70;86.10;;;;;;4992978;28;20081;-81
2023/10/22 09:18:12;;;;;;;6.50;1.67;;;12.70;86.10;;;;;;4970887;28;20543;-83
2023/10/22 09:20:39;;;;;;;5.82;1.40;;;12.70;86.00;;;;;;4991702;28;20130;-82
2023/10/22 09:23:17;;;;;;;4.20;1.60;;;12.80;85.50;;;;;;4986920;28;20067;-85
2023/10/22 09:25:46;;;;;;;6.63;1.20;;;12.80;85.50;;;;;;5004421;28;20314;-81
2023/10/22 09:28:17;;;;;;;4.75;1.13;;;12.80;85.20;;;;;;4987526;28;20055;-83
2023/10/22 09:30:44;;;;;;;5.65;1.50;;;12.80;85.10;;;;;;4989208;28;20103;-83
2023/10/22 09:33:12;;;;;;;6.70;1.42;;;12.80;85.00;;;;;;5003917;28;21080;-82
2023/10/22 09:35:39;;;;;;;4.90;1.40;;;12.80;84.80;;;;;;5003926;28;20051;-85
2023/10/22 09:38:06;;;;;;;6.00;1.10;;;12.90;84.80;;;;;;5020328;28;20725;-86
2023/10/22 09:40:34;;;;;;;6.30;1.23;;;12.90;85.00;;;;;;4974558;28;20133;-85
2023/10/22 09:43:09;;;;;;;5.63;1.25;;;12.90;85.00;;;;;;5035764;28;20066;-85
2023/10/22 09:45:39;;;;;;;4.05;1.17;;;13.00;84.80;;;;;;4982722;28;20145;-85
2023/10/22 09:48:12;;;;;;;6.23;1.30;;;13.00;84.50;;;;;;4987399;28;20055;-85
2023/10/22 09:50:45;;;;;;;6.05;1.30;;;13.00;84.40;;;;;;5029971;28;20269;-86
2023/10/22 09:53:16;;;;;;;6.00;1.30;;;13.10;83.60;;;;;;4991067;28;20046;-86
2023/10/22 09:55:50;;;;;;;5.18;0.88;;;13.10;83.20;;;;;;5019981;28;20517;-85
2023/10/22 09:58:22;;;;;;;7.28;0.80;;;13.10;82.60;;;;;;5020483;28;20063;-88
2023/10/22 10:00:52;;;;;;;2.37;0.57;;;13.10;81.70;;;;;;4978790;28;20054;-91
2023/10/22 10:03:21;;;;;;;4.18;1.00;;;13.20;80.80;;;;;;5007538;28;20357;-88
2023/10/22 10:05:51;;;;;;;3.67;0.90;;;13.20;80.70;;;;;;4979404;28;20046;-86
2023/10/22 10:08:18;;;;;;;4.28;1.08;;;13.20;79.60;;;;;;4981778;28;20053;-80
2023/10/22 10:10:46;;;;;;;4.10;0.70;;;13.20;80.00;;;;;;5000419;28;20065;-81
2023/10/22 10:13:13;;;;;;;4.13;0.83;;;13.20;79.60;;;;;;4983292;28;20159;-83
2023/10/22 10:15:40;;;;;;;3.67;0.93;;;13.10;79.40;;;;;;4985783;28;20274;-81
2023/10/22 10:18:09;;;;;;;4.47;0.77;;;13.10;79.60;;;;;;4969668;28;20496;-81
2023/10/22 10:20:39;;;;;;;3.92;0.80;;;13.10;79.20;;;;;;4969292;28;20074;-83
2023/10/22 10:23:19;;;;;;;3.78;0.68;;;13.10;78.70;;;;;;4970319;28;20055;-81
2023/10/22 10:25:46;;;;;;;5.47;0.80;;;13.10;78.70;;;;;;5022430;28;20055;-87
2023/10/22 10:28:13;;;;;;;5.28;0.60;;;13.10;78.80;;;;;;4973211;28;20262;-83
2023/10/22 10:30:41;;;;;;;3.17;0.88;;;13.10;78.60;;;;;;4972540;28;20058;-82
2023/10/22 10:33:12;;;;;;;3.95;0.93;;;13.10;78.90;;;;;;4971807;28;20210;-83
2023/10/22 10:35:47;;;;;;;4.70;1.25;;;13.10;78.50;;;;;;4973353;28;20564;-82
2023/10/22 10:38:22;;;;;;;3.40;0.80;;;13.00;78.70;;;;;;5006384;28;20061;-82
2023/10/22 10:40:50;;;;;;;2.67;0.68;;;13.00;78.80;;;;;;4979859;28;20269;-83
2023/10/22 10:43:18;;;;;;;5.30;0.90;;;13.00;79.10;;;;;;5006544;28;20950;-82
2023/10/22 10:46:26;;;;;;;4.70;1.10;;;13.00;79.30;;;;;;5022930;28;20090;-83
2023/10/22 10:48:54;;;;;;;4.93;1.50;;;13.00;79.50;;;;;;5021170;28;20106;-81
2023/10/22 10:51:24;;;;;;;4.23;1.53;;;13.00;79.70;;;;;;5004514;28;20055;-84
2023/10/22 10:54:17;;;;;;;6.25;1.80;;;13.00;80.20;;;;;;4988213;28;20769;-84
2023/10/22 10:56:53;;;;;;;6.15;1.50;;;13.10;80.30;;;;;;4972406;28;20098;-85
2023/10/22 10:59:40;;;;;;;7.75;1.98;;;13.10;80.10;;;;;;4988920;28;20109;-85
2023/10/22 11:02:10;;;;;;;4.80;1.48;;;13.10;80.20;;;;;;4967686;28;20146;-82
2023/10/22 11:04:40;;;;;;;4.03;1.40;;;13.10;80.20;;;;;;4973113;28;20148;-81
2023/10/22 11:07:07;;;;;;;5.70;1.40;;;13.10;80.10;;;;;;5006097;28;20361;-82
2023/10/22 11:09:37;;;;;;;6.03;1.73;;;13.10;79.80;;;;;;5020208;28;20125;-83
2023/10/22 11:12:07;;;;;;;5.00;1.70;;;13.10;79.80;;;;;;5037559;28;20046;-82
2023/10/22 11:14:36;;;;;;;5.35;1.50;;;13.10;79.80;;;;;;5013310;28;20082;-82
2023/10/22 11:17:03;;;;;;;5.33;1.60;;;13.10;80.00;;;;;;5020938;28;20055;-84
2023/10/22 11:19:32;;;;;;;4.30;1.40;;;13.10;80.20;;;;;;5004802;28;20258;-83
2023/10/22 11:22:00;;;;;;;4.85;1.40;;;13.10;80.10;;;;;;4988869;28;20747;-82
2023/10/22 11:24:30;;;;;;;5.80;1.60;;;13.10;80.10;;;;;;5022573;28;20051;-82
2023/10/22 11:26:58;;;;;;;4.75;1.23;;;13.10;80.20;;;;;;4990550;28;20055;-82
2023/10/22 11:29:25;;;;;;;4.70;1.10;;;13.20;79.60;;;;;;4989561;28;20139;-82
2023/10/22 11:31:53;;;;;;;3.85;1.00;;;13.30;78.40;;;;;;5023151;28;20752;-86
2023/10/22 11:34:49;;;;;;;4.53;1.10;;;13.30;78.20;;;;;;4973219;28;20043;-86
2023/10/22 11:37:21;;;;;;;4.95;0.90;;;13.30;77.30;;;;;;4989149;28;20055;-79
2023/10/22 11:39:48;;;;;;;2.80;0.60;;;13.30;77.30;;;;;;4973203;28;20058;-79
2023/10/22 11:42:15;;;;;;;3.80;0.77;;;13.30;77.10;;;;;;4981480;28;20527;-79
2023/10/22 11:44:45;;;;;;;2.92;0.80;;;13.30;76.90;;;;;;4987022;28;20819;-79
2023/10/22 11:47:30;;;;;;;3.15;0.70;;;13.30;76.80;;;;;;4987350;28;20598;-79
2023/10/22 11:50:00;;;;;;;3.45;0.50;;;13.30;76.20;;;;;;4988299;28;20086;-79
2023/10/22 11:52:48;;;;;;;3.10;0.52;;;13.40;76.00;;;;;;5021317;28;20117;-81
2023/10/22 11:55:15;;;;;;;5.00;0.70;;;13.30;75.40;;;;;;4984846;28;20054;-79
2023/10/22 11:57:42;;;;;;;4.13;0.80;;;13.40;76.00;;;;;;5021965;28;20285;-79
2023/10/22 12:00:10;;;;;;;4.30;0.63;;;13.30;75.50;;;;;;4987721;28;20047;-80
2023/10/22 12:02:38;;;;;;;3.40;0.70;;;13.40;75.70;;;;;;4987950;28;20054;-82
2023/10/22 12:05:06;;;;;;;3.35;0.70;;;13.30;76.00;;;;;;4988206;28;20050;-80
2023/10/22 12:07:33;;;;;;;2.67;0.70;;;13.40;75.80;;;;;;5002963;28;20062;-81
2023/10/22 12:10:02;;;;;;;3.70;0.73;;;13.40;75.20;;;;;;4995873;28;20683;-82
2023/10/22 12:12:31;;;;;;;4.07;0.60;;;13.40;75.70;;;;;;5011257;28;20050;-84
2023/10/22 12:15:04;;;;;;;4.93;0.70;;;13.40;76.10;;;;;;4987309;28;20062;-79
2023/10/22 12:17:31;;;;;;;3.13;0.80;;;13.50;76.00;;;;;;4987350;28;20070;-79
2023/10/22 12:19:58;;;;;;;2.50;0.53;;;13.50;75.50;;;;;;4986605;28;20055;-79
2023/10/22 12:22:26;;;;;;;3.65;0.50;;;13.60;75.30;;;;;;4971857;28;20255;-82
2023/10/22 12:24:57;;;;;;;3.15;0.75;;;13.60;75.70;;;;;;5021244;28;20054;-83
2023/10/22 12:27:25;;;;;;;3.13;0.70;;;13.70;75.90;;;;;;4986031;28;20057;-84
2023/10/22 12:29:53;;;;;;;3.30;0.80;;;13.70;75.60;;;;;;5000780;28;20054;-84
2023/10/22 12:32:20;;;;;;;3.07;1.03;;;13.80;75.40;;;;;;4997276;28;20053;-86
2023/10/22 12:34:47;;;;;;;5.00;0.90;;;13.90;75.60;;;;;;4990127;28;20344;-83
2023/10/22 12:37:14;;;;;;;2.80;0.80;;;13.90;75.80;;;;;;5038677;28;20062;-79
2023/10/22 12:39:42;;;;;;;4.05;0.85;;;13.90;75.00;;;;;;4970773;28;20070;-82
2023/10/22 12:42:09;;;;;;;5.15;1.00;;;13.90;74.50;;;;;;5010318;28;20083;-85
2023/10/22 12:44:37;;;;;;;3.03;0.50;;;13.90;74.30;;;;;;5019677;28;20054;-84
2023/10/22 12:47:06;;;;;;;3.50;0.60;;;13.90;74.30;;;;;;5040689;28;20281;-87
2023/10/22 12:49:33;;;;;;;4.90;0.70;;;14.00;73.00;;;;;;4973033;28;20051;-83
2023/10/22 12:52:00;;;;;;;3.35;0.70;;;14.00;73.20;;;;;;4988764;28;20145;-81
2023/10/22 12:54:26;;;;;;;3.97;0.50;;;13.90;73.30;;;;;;4989544;28;20051;-84
2023/10/22 12:56:54;;;;;;;2.83;0.70;;;13.90;73.80;;;;;;5012563;28;20577;-81
2023/10/22 12:59:21;;;;;;;3.00;0.80;;;13.90;73.60;;;;;;5011013;28;20273;-82
2023/10/22 13:01:49;;;;;;;3.58;0.88;;;13.90;73.90;;;;;;5004834;28;20054;-83
2023/10/22 13:04:16;;;;;;;3.38;0.80;;;13.90;74.20;;;;;;5029288;28;20059;-86
2023/10/22 13:06:43;;;;;;;3.78;0.80;;;13.90;74.50;;;;;;5006085;28;20137;-80
2023/10/22 13:09:10;;;;;;;4.27;0.80;;;14.00;74.30;;;;;;5021935;28;20051;-84
2023/10/22 13:11:39;;;;;;;5.30;0.80;;;14.00;75.60;;;;;;5029520;28;20673;-90
2023/10/22 13:14:06;;;;;;;4.55;1.00;;;14.00;75.40;;;;;;4986202;28;20054;-79
2023/10/22 13:16:33;;;;;;;4.93;0.70;;;14.10;74.60;;;;;;4984902;28;20051;-79
2023/10/22 13:19:02;;;;;;;4.57;0.60;;;14.20;74.40;;;;;;4971770;28;20047;-82
2023/10/22 13:21:30;;;;;;;3.07;0.50;;;14.20;74.40;;;;;;4987827;28;20058;-84
2023/10/22 13:23:57;;;;;;;3.50;0.82;;;14.30;73.30;;;;;;4986959;28;21019;-82
2023/10/22 13:26:24;;;;;;;3.88;0.70;;;14.40;72.50;;;;;;4963592;28;20054;-83
2023/10/22 13:28:56;;;;;;;4.00;0.75;;;14.40;71.90;;;;;;5007238;28;20043;-91
2023/10/22 13:31:24;;;;;;;3.85;0.60;;;14.40;72.50;;;;;;4984272;28;20057;-86
2023/10/22 13:33:51;;;;;;;7.10;0.73;;;14.50;71.70;;;;;;4980025;28;20067;-81
2023/10/22 13:36:19;;;;;;;3.13;0.55;;;14.60;70.80;;;;;;4978037;28;21177;-82
2023/10/22 13:38:46;;;;;;;3.45;0.70;;;14.60;70.50;;;;;;5004590;28;20047;-78
2023/10/22 13:41:13;;;;;;;3.63;0.50;;;14.70;69.90;;;;;;5009703;28;20099;-81
2023/10/22 13:43:41;;;;;;;2.22;0.50;;;14.70;69.50;;;;;;4994650;28;20063;-79
2023/10/22 13:46:08;;;;;;;3.03;0.50;;;14.70;70.00;;;;;;4987911;28;20062;-78
2023/10/22 13:48:35;;;;;;;3.55;0.40;;;14.80;69.50;;;;;;4997317;28;20424;-80
2023/10/22 13:51:05;;;;;;;2.50;0.47;;;14.80;68.30;;;;;;5000291;28;20567;-80
2023/10/22 13:53:35;;;;;;;1.30;0.20;;;14.90;67.50;;;;;;4986640;28;20139;-79
2023/10/22 13:56:02;;;;;;;4.63;0.45;;;14.90;67.20;;;;;;5019320;28;20054;-77
2023/10/22 13:58:30;;;;;;;2.00;0.23;;;14.80;67.50;;;;;;4987520;28;20062;-78
2023/10/22 14:00:57;;;;;;;2.85;0.40;;;14.80;68.30;;;;;;5023684;28;20261;-78
2023/10/22 14:03:24;;;;;;;2.33;0.40;;;14.80;69.10;;;;;;4987949;28;20595;-79
2023/10/22 14:05:52;;;;;;;3.10;0.32;;;14.80;68.60;;;;;;4989013;28;20134;-79
2023/10/22 14:08:19;;;;;;;2.60;0.40;;;14.80;68.70;;;;;;4990455;28;20050;-79
2023/10/22 14:10:48;;;;;;;3.00;0.50;;;14.80;69.10;;;;;;4990829;28;20058;-79
2023/10/22 14:13:16;;;;;;;3.33;0.40;;;14.80;68.70;;;;;;4994455;28;20270;-82
2023/10/22 14:15:47;;;;;;;2.15;0.30;;;14.80;67.20;;;;;;5008474;28;20051;-80
2023/10/22 14:18:17;;;;;;;3.58;0.57;;;14.80;67.00;;;;;;4972379;28;20058;-83
2023/10/22 14:20:47;;;;;;;4.05;0.32;;;14.80;67.10;;;;;;5007105;28;20478;-82
2023/10/22 14:23:15;;;;;;;5.20;0.40;;;14.70;67.10;;;;;;4991765;28;20065;-86
2023/10/22 14:25:55;;;;;;;3.10;0.35;;;14.70;67.30;;;;;;4991321;28;20286;-80
2023/10/22 14:28:25;;;;;;;1.85;0.30;;;14.60;67.00;;;;;;4971540;28;20130;-85
2023/10/22 14:30:52;;;;;;;2.42;0.40;;;14.50;68.00;;;;;;4974878;28;20058;-86